Aviation Digital Data Service (ADDS)

Output produced by METARs form (1842 UTC 27 August 2016)
found at http://www.aviationweather.gov/adds/metars/
 
KTHV 271753Z AUTO 08005KT 10SM FEW050 31/19 A3019 RMK AO2 SLP221 T03110189 10311 20206 56007
KTHV 271653Z AUTO 10SM CLR 31/19 A3019 RMK AO2 SLP222 T03060189
KTHV 271553Z AUTO 12004KT 10SM CLR 29/18 A3020 RMK AO2 SLP225 T02890183
KTHV 271453Z AUTO 11008KT 10SM CLR 29/18 A3021 RMK AO2 SLP228 T02890183 50003
KTHV 271353Z AUTO 07006KT 10SM CLR 27/19 A3021 RMK AO2 SLP229 T02720189
KTHV 271253Z AUTO 00000KT 7SM CLR 24/20 A3021 RMK AO2 SLP227 T02440200
KTHV 271153Z AUTO 00000KT 10SM CLR 21/18 A3020 RMK AO2 SLP224 T02060183 10206 20161 51017
KTHV 271053Z AUTO 00000KT 4SM BR CLR 17/17 A3019 RMK AO2 SLP220 T01720167
KTHV 270953Z AUTO 00000KT 6SM BR CLR 17/16 A3017 RMK AO2 SLP213 T01670161
KTHV 270853Z AUTO 00000KT 8SM CLR 17/16 A3015 RMK AO2 SLP207 T01670161 53009
KTHV 270753Z AUTO 00000KT 7SM CLR 17/16 A3013 RMK AO2 SLP201 T01670161
KTHV 270653Z AUTO 00000KT 9SM CLR 17/17 A3012 RMK AO2 SLP199 T01720167
KTHV 270553Z AUTO 00000KT 9SM CLR 18/17 A3012 RMK AO2 SLP198 T01830172 10250 20183 50005
KTHV 270453Z AUTO 00000KT 10SM CLR 19/18 A3012 RMK AO2 SLP199 T01890178 403330183
KTHV 270353Z AUTO 00000KT 10SM CLR 19/18 A3012 RMK AO2 SLP198 T01940183
KTHV 270253Z AUTO 00000KT 10SM CLR 20/19 A3011 RMK AO2 SLP194 T02000189 51016
KTHV 270153Z AUTO 00000KT 10SM CLR 21/19 A3010 RMK AO2 SLP189 T02060189
KTHV 270053Z AUTO 00000KT 10SM CLR 22/20 A3008 RMK AO2 SLP186 T02220200
KTHV 262353Z AUTO 27003KT 10SM CLR 25/21 A3006 RMK AO2 SLP177 T02500206 10333 20244 53005
KTHV 262253Z AUTO 02003KT 10SM CLR 31/18 A3005 RMK AO2 SLP173 T03110183
KTHV 262153Z AUTO 01009KT 10SM SCT070 32/18 A3005 RMK AO2 SLP173 T03220183
KTHV 262053Z AUTO 33005KT 10SM CLR 31/19 A3005 RMK AO2 SLP171 T03110189 56006
KTHV 261953Z AUTO 34006KT 10SM SCT070 33/19 A3005 RMK AO2 SLP171 T03330194
KTHV 261853Z AUTO 34009KT 10SM BKN065 32/20 A3006 RMK AO2 SLP175 T03220200
KTHV 261753Z AUTO VRB05KT 10SM SCT049 32/19 A3007 RMK AO2 SLP178 T03170194 10322 20261 58003
KTHV 261653Z AUTO 32008KT 10SM FEW046 SCT055 32/21 A3007 RMK AO2 SLP178 T03170206
KTHV 261553Z AUTO 35009KT 10SM FEW041 BKN050 31/21 A3007 RMK AO2 SLP181 T03060206
KTHV 261453Z AUTO 32006KT 10SM SCT040 29/21 A3007 RMK AO2 SLP181 T02940206 51003
KTHV 261353Z AUTO 30009G16KT 10SM FEW037 29/21 A3007 RMK AO2 SLP180 T02890211
KTHV 261253Z AUTO 28008KT 10SM CLR 28/22 A3007 RMK AO2 SLP179 T02780222
KTHV 261153Z AUTO 27004KT 10SM CLR 26/23 A3006 RMK AO2 SLP177 T02610228 10261 20206 51013
KTHV 261129Z AUTO 00000KT 5SM BR CLR 23/22 A3006 RMK AO2 T02280217
KTHV 261122Z AUTO 00000KT 2 1/2SM BR CLR 22/21 A3005 RMK AO2 T02220211
KTHV 261120Z AUTO 00000KT 1 1/2SM BR CLR 22/21 A3005 RMK AO2 T02220211
KTHV 261053Z AUTO 00000KT M1/4SM FG VV003 21/21 A3006 RMK AO2 SLP177 T02110206
KTHV 261041Z AUTO 00000KT 1/4SM FG VV003 21/20 A3006 RMK AO2 T02060200
KTHV 261038Z AUTO 00000KT 1SM BR CLR 21/21 A3006 RMK AO2 T02060206
KTHV 261033Z AUTO 00000KT 4SM BR CLR 21/21 A3006 RMK AO2 T02110206
KTHV 261023Z AUTO 00000KT 2 1/2SM BR CLR 22/21 A3005 RMK AO2 VIS 1 1/2V4 T02170211
KTHV 260953Z AUTO 00000KT 5SM BR CLR 22/22 A3003 RMK AO2 SLP168 T02220217
KTHV 260853Z AUTO 00000KT 9SM FEW065 24/23 A3002 RMK AO2 SLP164 T02390228 53009
KTHV 260753Z AUTO 00000KT 10SM SCT041 BKN048 BKN120 24/23 A3000 RMK AO2 LTG DSNT N SLP156 T02440228
KTHV 260653Z AUTO 00000KT 10SM CLR 26/23 A3000 RMK AO2 SLP157 T02560233